Time;durP1;ratioP1;P1;durP2;ratioP2;P2;SDS_P1;SDS_P2;PMS_P1;PMS_P2;Temp;Humidity;BMP_temperature;BMP_pressure;BME280_temperature;BME280_humidity;BME280_pressure;Samples;Min_cycle;Max_cycle;Signal;HPM_P1;HPM_P2
2023/03/22 00:01:11;;;;;;;5.63;5.17;;;;;;;;;;5051926;28;20440;-86
2023/03/22 00:03:38;;;;;;;5.70;5.20;;;;;;;;;;5051882;28;20430;-86
2023/03/22 00:06:04;;;;;;;5.30;4.80;;;;;;;;;;5035454;28;20428;-85
2023/03/22 00:08:31;;;;;;;7.63;5.07;;;;;;;;;;5054936;28;20430;-87
2023/03/22 00:10:57;;;;;;;6.67;5.73;;;;;;;;;;5031789;28;20487;-85
2023/03/22 00:13:23;;;;;;;5.80;5.33;;;;;;;;;;5028358;28;20442;-86
2023/03/22 00:15:49;;;;;;;7.53;6.40;;;;;;;;;;5047387;28;20454;-84
2023/03/22 00:18:17;;;;;;;7.53;6.83;;;;;;;;;;5039230;28;20471;-83
2023/03/22 00:20:47;;;;;;;5.97;5.67;;;;;;;;;;5025683;28;20427;-85
2023/03/22 00:23:19;;;;;;;5.30;4.90;;;;;;;;;;5044134;28;20422;-86
2023/03/22 00:25:46;;;;;;;5.63;5.23;;;;;;;;;;5049485;28;20435;-85
2023/03/22 00:28:16;;;;;;;5.20;4.87;;;;;;;;;;5012080;28;21114;-85
2023/03/22 00:30:42;;;;;;;5.67;5.27;;;;;;;;;;5035545;28;20964;-87
2023/03/22 00:33:09;;;;;;;7.63;6.00;;;;;;;;;;5047340;28;20447;-85
2023/03/22 00:35:35;;;;;;;5.37;5.07;;;;;;;;;;5027799;28;20455;-86
2023/03/22 00:38:05;;;;;;;7.00;6.33;;;;;;;;;;5056451;28;20418;-86
2023/03/22 00:40:33;;;;;;;8.60;5.67;;;;;;;;;;5015097;28;20583;-86
2023/03/22 00:43:02;;;;;;;5.93;5.53;;;;;;;;;;5030926;28;20511;-85
2023/03/22 00:45:28;;;;;;;6.00;5.60;;;;;;;;;;5050786;28;20854;-86
2023/03/22 00:47:54;;;;;;;6.40;6.00;;;;;;;;;;5036854;28;20442;-85
2023/03/22 00:50:20;;;;;;;7.10;6.60;;;;;;;;;;5031809;28;20455;-85
2023/03/22 00:52:46;;;;;;;7.03;6.40;;;;;;;;;;5020157;28;20515;-83
2023/03/22 00:55:12;;;;;;;8.17;7.40;;;;;;;;;;5013497;28;20462;-84
2023/03/22 00:57:38;;;;;;;5.63;5.33;;;;;;;;;;5044234;28;20459;-84
2023/03/22 01:00:15;;;;;;;8.07;6.27;;;;;;;;;;5033171;28;20451;-85
2023/03/22 01:02:41;;;;;;;6.90;6.40;;;;;;;;;;5020154;28;20542;-84
2023/03/22 01:05:14;;;;;;;7.17;6.47;;;;;;;;;;5042968;28;20437;-84
2023/03/22 01:07:44;;;;;;;7.70;7.10;;;;;;;;;;5027527;28;20411;-84
2023/03/22 01:10:11;;;;;;;7.03;6.47;;;;;;;;;;5030178;28;20436;-84
2023/03/22 01:12:37;;;;;;;11.83;7.00;;;;;;;;;;5035401;28;20427;-84
2023/03/22 01:15:03;;;;;;;10.50;7.17;;;;;;;;;;5018528;28;20495;-84
2023/03/22 01:17:29;;;;;;;8.00;6.90;;;;;;;;;;5029821;28;20453;-84
2023/03/22 01:19:55;;;;;;;7.40;6.80;;;;;;;;;;5014970;28;20968;-83
2023/03/22 01:22:21;;;;;;;7.30;6.53;;;;;;;;;;5046218;28;20415;-84
2023/03/22 01:24:48;;;;;;;7.33;6.70;;;;;;;;;;5040775;28;20481;-83
2023/03/22 01:27:16;;;;;;;7.50;6.87;;;;;;;;;;5013279;28;20438;-84
2023/03/22 01:29:42;;;;;;;7.37;6.67;;;;;;;;;;5019209;28;20495;-84
2023/03/22 01:32:08;;;;;;;7.67;6.97;;;;;;;;;;5031033;28;20438;-83
2023/03/22 01:34:34;;;;;;;11.40;8.07;;;;;;;;;;5048016;28;20459;-84
2023/03/22 01:37:00;;;;;;;6.63;6.10;;;;;;;;;;5044605;28;20491;-85
2023/03/22 01:39:26;;;;;;;7.40;6.80;;;;;;;;;;5016216;28;20464;-84
2023/03/22 01:41:52;;;;;;;7.13;6.73;;;;;;;;;;5007417;28;20495;-83
2023/03/22 01:44:20;;;;;;;8.90;7.43;;;;;;;;;;5031583;28;20443;-84
2023/03/22 01:46:47;;;;;;;8.33;7.63;;;;;;;;;;5004548;28;20447;-85
2023/03/22 01:49:24;;;;;;;6.90;6.30;;;;;;;;;;5018190;28;20448;-85
2023/03/22 01:51:51;;;;;;;8.70;7.37;;;;;;;;;;5025916;28;20479;-84
2023/03/22 01:54:20;;;;;;;7.97;7.17;;;;;;;;;;5028734;28;20446;-84
2023/03/22 01:56:46;;;;;;;9.50;8.40;;;;;;;;;;5033158;28;20588;-85
2023/03/22 01:59:13;;;;;;;9.87;8.97;;;;;;;;;;5037339;28;20558;-85
2023/03/22 02:01:39;;;;;;;9.50;8.23;;;;;;;;;;5048308;28;20407;-85
2023/03/22 02:04:15;;;;;;;8.70;8.00;;;;;;;;;;5030495;28;20452;-85
2023/03/22 02:06:41;;;;;;;8.70;7.90;;;;;;;;;;5053706;28;20482;-87
2023/03/22 02:09:09;;;;;;;10.20;8.60;;;;;;;;;;5034419;28;20430;-84
2023/03/22 02:11:37;;;;;;;9.10;8.20;;;;;;;;;;5031694;28;20460;-85
2023/03/22 02:14:24;;;;;;;8.40;7.40;;;;;;;;;;5029118;28;20435;-86
2023/03/22 02:17:08;;;;;;;8.10;7.50;;;;;;;;;;5030903;28;20423;-84
2023/03/22 02:19:47;;;;;;;10.70;9.00;;;;;;;;;;5017147;28;20471;-86
2023/03/22 02:22:13;;;;;;;11.53;9.83;;;;;;;;;;5028618;28;20435;-84
2023/03/22 02:25:04;;;;;;;9.80;8.90;;;;;;;;;;5001314;28;20455;-84
2023/03/22 02:27:39;;;;;;;10.73;9.10;;;;;;;;;;5019383;28;20442;-85
2023/03/22 02:30:24;;;;;;;7.63;7.07;;;;;;;;;;5031095;28;20445;-84
2023/03/22 02:33:08;;;;;;;9.33;8.63;;;;;;;;;;5048629;28;20429;-83
2023/03/22 02:35:53;;;;;;;10.73;9.60;;;;;;;;;;5023698;28;20618;-85
2023/03/22 02:38:28;;;;;;;9.30;7.80;;;;;;;;;;5055805;28;20836;-87
2023/03/22 02:41:02;;;;;;;8.83;8.13;;;;;;;;;;5035836;28;20449;-85
2023/03/22 02:46:05;;;;;;;10.90;8.83;;;;;;;;;;5035522;23;20474;-84
2023/03/22 02:48:35;;;;;;;10.50;9.47;;;;;;;;;;5018490;28;20445;-85
2023/03/22 02:51:05;;;;;;;9.33;8.40;;;;;;;;;;5015408;28;20998;-85
2023/03/22 02:53:40;;;;;;;9.83;8.33;;;;;;;;;;5022142;28;20510;-84
2023/03/22 02:56:15;;;;;;;11.70;9.60;;;;;;;;;;5021311;28;20466;-85
2023/03/22 02:58:49;;;;;;;9.80;8.60;;;;;;;;;;5013804;28;20469;-84
2023/03/22 03:01:21;;;;;;;10.47;9.43;;;;;;;;;;5016944;28;20435;-84
2023/03/22 03:03:49;;;;;;;10.57;9.57;;;;;;;;;;5020642;28;20446;-83
2023/03/22 03:06:17;;;;;;;11.20;9.30;;;;;;;;;;5020672;28;20450;-85
2023/03/22 03:08:45;;;;;;;10.33;9.37;;;;;;;;;;5023937;28;20435;-86
2023/03/22 03:11:13;;;;;;;10.63;9.47;;;;;;;;;;5023788;28;20650;-86
2023/03/22 03:13:42;;;;;;;10.23;9.23;;;;;;;;;;5026418;28;20434;-86
2023/03/22 03:16:12;;;;;;;10.40;9.43;;;;;;;;;;5027516;28;20438;-86
2023/03/22 03:18:43;;;;;;;8.67;7.93;;;;;;;;;;5011476;28;20451;-85
2023/03/22 03:21:21;;;;;;;9.77;8.93;;;;;;;;;;5021439;28;20415;-86
2023/03/22 03:23:54;;;;;;;11.17;10.23;;;;;;;;;;5010337;28;20431;-85
2023/03/22 03:26:29;;;;;;;10.70;8.40;;;;;;;;;;5021960;28;20431;-85
2023/03/22 03:28:55;;;;;;;11.50;9.73;;;;;;;;;;5019761;28;21002;-85
2023/03/22 03:31:24;;;;;;;13.67;8.07;;;;;;;;;;5017362;28;20412;-84
2023/03/22 03:34:19;;;;;;;10.13;9.10;;;;;;;;;;5022234;28;20893;-85
2023/03/22 03:36:52;;;;;;;9.40;8.50;;;;;;;;;;5001147;28;20455;-86
2023/03/22 03:39:19;;;;;;;13.43;9.50;;;;;;;;;;5024724;28;20892;-84
2023/03/22 03:41:46;;;;;;;10.40;9.10;;;;;;;;;;5006516;28;20430;-83
2023/03/22 03:44:13;;;;;;;10.80;8.20;;;;;;;;;;5018882;28;20452;-82
2023/03/22 03:46:39;;;;;;;10.10;8.03;;;;;;;;;;5033098;28;20507;-83
2023/03/22 03:49:11;;;;;;;10.83;7.60;;;;;;;;;;5039398;28;20442;-83
2023/03/22 03:51:45;;;;;;;15.80;9.13;;;;;;;;;;5029676;28;20507;-83
2023/03/22 03:54:11;;;;;;;11.67;9.83;;;;;;;;;;5009886;28;20435;-84
2023/03/22 03:56:37;;;;;;;9.60;8.90;;;;;;;;;;5034099;28;20404;-85
2023/03/22 03:59:03;;;;;;;8.57;7.87;;;;;;;;;;5032954;28;20489;-83
2023/03/22 04:01:29;;;;;;;12.63;9.17;;;;;;;;;;5039343;28;20435;-83
2023/03/22 04:03:55;;;;;;;11.20;8.50;;;;;;;;;;5046497;28;20445;-85
2023/03/22 04:06:21;;;;;;;9.63;8.53;;;;;;;;;;5038602;28;20434;-85
2023/03/22 04:08:52;;;;;;;8.80;8.00;;;;;;;;;;5044232;28;20431;-82
2023/03/22 04:11:18;;;;;;;9.13;8.23;;;;;;;;;;5028409;28;20404;-82
2023/03/22 04:13:47;;;;;;;11.53;8.40;;;;;;;;;;5018750;28;20471;-82
2023/03/22 04:16:15;;;;;;;10.23;8.93;;;;;;;;;;5022625;28;20419;-77
2023/03/22 04:18:44;;;;;;;9.67;8.83;;;;;;;;;;5010619;28;20466;-78
2023/03/22 04:21:12;;;;;;;10.10;9.13;;;;;;;;;;5011478;28;20442;-78
2023/03/22 04:23:38;;;;;;;10.63;9.60;;;;;;;;;;5013570;28;21068;-84
2023/03/22 04:26:04;;;;;;;9.13;7.80;;;;;;;;;;5022474;28;20424;-84
2023/03/22 04:28:32;;;;;;;9.17;8.37;;;;;;;;;;5018882;28;20440;-82
2023/03/22 04:30:58;;;;;;;14.33;9.10;;;;;;;;;;4996078;28;20459;-81
2023/03/22 04:33:25;;;;;;;7.70;7.10;;;;;;;;;;5021133;28;20439;-83
2023/03/22 04:35:55;;;;;;;11.33;9.60;;;;;;;;;;5025219;28;20530;-84
2023/03/22 04:38:21;;;;;;;9.13;8.37;;;;;;;;;;5017635;28;20427;-82
2023/03/22 04:40:47;;;;;;;8.47;7.70;;;;;;;;;;5020690;28;20516;-83
2023/03/22 04:43:14;;;;;;;8.50;7.70;;;;;;;;;;5016030;28;20500;-83
2023/03/22 04:45:40;;;;;;;9.43;8.27;;;;;;;;;;5014550;28;20451;-82
2023/03/22 04:48:09;;;;;;;9.67;8.60;;;;;;;;;;5022306;28;20426;-83
2023/03/22 04:50:35;;;;;;;7.10;6.60;;;;;;;;;;5017902;28;20419;-81
2023/03/22 04:53:02;;;;;;;7.90;7.30;;;;;;;;;;5017707;28;20521;-83
2023/03/22 04:55:28;;;;;;;9.20;8.27;;;;;;;;;;4990813;28;20497;-79
2023/03/22 04:57:55;;;;;;;9.93;8.30;;;;;;;;;;5027433;28;20703;-80
2023/03/22 05:00:22;;;;;;;8.90;8.10;;;;;;;;;;5024788;28;20474;-83
2023/03/22 05:02:48;;;;;;;9.30;8.60;;;;;;;;;;5034742;28;20501;-82
2023/03/22 05:05:14;;;;;;;8.97;8.03;;;;;;;;;;5014901;28;20459;-84
2023/03/22 05:07:40;;;;;;;9.53;8.10;;;;;;;;;;5031607;28;20443;-84
2023/03/22 05:10:06;;;;;;;6.80;6.30;;;;;;;;;;5033907;28;20515;-84
2023/03/22 05:12:32;;;;;;;10.43;8.77;;;;;;;;;;5045134;28;20440;-85
2023/03/22 05:14:59;;;;;;;10.20;7.97;;;;;;;;;;5020155;28;20546;-80
2023/03/22 05:17:26;;;;;;;9.40;7.90;;;;;;;;;;4993115;28;20885;-80
2023/03/22 05:19:52;;;;;;;8.03;7.43;;;;;;;;;;5017627;28;20458;-85
2023/03/22 05:22:18;;;;;;;10.00;7.80;;;;;;;;;;5021558;28;20435;-79
2023/03/22 05:24:44;;;;;;;8.00;7.03;;;;;;;;;;5017552;28;20443;-84
2023/03/22 05:27:13;;;;;;;8.27;7.40;;;;;;;;;;5037738;28;20451;-85
2023/03/22 05:29:43;;;;;;;5.90;5.57;;;;;;;;;;5020566;28;20436;-84
2023/03/22 05:32:09;;;;;;;8.33;7.77;;;;;;;;;;5023621;28;20420;-81
2023/03/22 05:34:35;;;;;;;10.97;8.30;;;;;;;;;;5023860;28;20507;-84
2023/03/22 05:37:02;;;;;;;11.93;8.50;;;;;;;;;;5027735;28;20427;-83
2023/03/22 05:39:28;;;;;;;7.00;6.40;;;;;;;;;;5019307;28;20477;-83
2023/03/22 05:41:54;;;;;;;8.83;8.03;;;;;;;;;;5024859;28;20481;-84
2023/03/22 05:44:20;;;;;;;6.27;5.87;;;;;;;;;;5020767;28;20471;-82
2023/03/22 05:46:46;;;;;;;6.47;6.00;;;;;;;;;;5024855;28;20431;-84
2023/03/22 05:49:12;;;;;;;8.23;7.50;;;;;;;;;;5022113;28;20467;-83
2023/03/22 05:51:40;;;;;;;10.67;7.50;;;;;;;;;;5023678;28;20424;-82
2023/03/22 05:54:07;;;;;;;8.03;5.90;;;;;;;;;;5003688;28;20807;-84
2023/03/22 05:56:33;;;;;;;6.33;5.93;;;;;;;;;;5022714;28;20750;-82
2023/03/22 05:58:59;;;;;;;5.40;5.00;;;;;;;;;;5034073;28;20467;-83
2023/03/22 06:01:25;;;;;;;6.93;6.43;;;;;;;;;;5023818;28;20447;-84
2023/03/22 06:03:51;;;;;;;7.17;6.57;;;;;;;;;;5030541;28;20520;-81
2023/03/22 06:06:17;;;;;;;7.83;6.80;;;;;;;;;;5027879;28;20546;-84
2023/03/22 06:08:42;;;;;;;7.97;6.60;;;;;;;;;;5019388;28;20481;-84
2023/03/22 06:11:09;;;;;;;10.60;6.90;;;;;;;;;;5016481;28;20904;-80
2023/03/22 06:13:36;;;;;;;3.80;3.60;;;;;;;;;;5007282;28;20429;-84
2023/03/22 06:16:02;;;;;;;7.20;6.50;;;;;;;;;;5021575;28;20446;-80
2023/03/22 06:18:29;;;;;;;6.07;5.57;;;;;;;;;;5024668;28;20447;-83
2023/03/22 06:20:55;;;;;;;8.67;5.50;;;;;;;;;;5019576;28;20462;-83
2023/03/22 06:23:21;;;;;;;7.80;7.10;;;;;;;;;;5014049;28;20443;-83
2023/03/22 06:25:48;;;;;;;6.00;5.60;;;;;;;;;;5028165;28;20408;-82
2023/03/22 06:28:14;;;;;;;6.20;5.80;;;;;;;;;;5023479;28;20436;-82
2023/03/22 06:30:41;;;;;;;6.53;5.83;;;;;;;;;;5019535;28;20528;-85
2023/03/22 06:33:07;;;;;;;8.00;5.97;;;;;;;;;;5017404;28;20443;-84
2023/03/22 06:35:33;;;;;;;6.80;5.60;;;;;;;;;;5022385;28;20461;-83
2023/03/22 06:37:59;;;;;;;6.63;6.10;;;;;;;;;;5003722;28;20762;-83
2023/03/22 06:40:28;;;;;;;7.10;6.60;;;;;;;;;;5023284;28;20528;-84
2023/03/22 06:42:54;;;;;;;5.97;5.57;;;;;;;;;;5023887;28;20424;-81
2023/03/22 06:45:23;;;;;;;7.53;6.73;;;;;;;;;;5039011;28;20545;-85
2023/03/22 06:47:49;;;;;;;7.33;5.90;;;;;;;;;;5013041;28;21023;-83
2023/03/22 06:50:16;;;;;;;6.10;5.60;;;;;;;;;;5023164;28;20420;-82
2023/03/22 06:52:42;;;;;;;11.23;5.70;;;;;;;;;;5026550;28;20693;-84
2023/03/22 06:55:08;;;;;;;5.43;5.03;;;;;;;;;;5016193;28;20462;-82
2023/03/22 06:57:34;;;;;;;6.83;5.43;;;;;;;;;;5034385;28;20712;-84
2023/03/22 07:00:00;;;;;;;5.07;4.67;;;;;;;;;;5026860;28;20506;-84
2023/03/22 07:02:26;;;;;;;6.47;6.07;;;;;;;;;;5030301;28;20828;-79
2023/03/22 07:04:52;;;;;;;6.30;5.80;;;;;;;;;;5028257;28;20440;-83
2023/03/22 07:07:18;;;;;;;6.50;5.83;;;;;;;;;;5027411;28;20475;-84
2023/03/22 07:09:44;;;;;;;5.40;5.00;;;;;;;;;;5023216;28;20943;-81
2023/03/22 07:12:12;;;;;;;6.87;5.13;;;;;;;;;;5026487;28;20442;-83
2023/03/22 07:14:38;;;;;;;6.10;5.70;;;;;;;;;;5007925;28;20845;-84
2023/03/22 07:17:07;;;;;;;4.73;4.50;;;;;;;;;;5036908;28;20462;-80
2023/03/22 07:19:33;;;;;;;5.40;4.90;;;;;;;;;;5020293;28;20467;-84
2023/03/22 07:21:59;;;;;;;4.77;4.37;;;;;;;;;;5029948;28;20418;-84
2023/03/22 07:24:25;;;;;;;6.80;4.80;;;;;;;;;;5019767;28;20461;-86
2023/03/22 07:26:51;;;;;;;3.77;3.60;;;;;;;;;;5034221;28;20430;-84
2023/03/22 07:29:17;;;;;;;6.13;5.00;;;;;;;;;;5036081;28;20506;-84
2023/03/22 07:31:44;;;;;;;3.97;3.67;;;;;;;;;;5032818;28;20427;-85
2023/03/22 07:34:10;;;;;;;9.10;4.20;;;;;;;;;;5027250;28;20428;-83
2023/03/22 07:36:37;;;;;;;3.87;3.40;;;;;;;;;;5027854;28;20439;-82
2023/03/22 07:39:04;;;;;;;2.63;2.47;;;;;;;;;;5030404;28;20459;-84
2023/03/22 07:41:30;;;;;;;3.60;3.40;;;;;;;;;;5027721;28;20458;-85
2023/03/22 07:43:56;;;;;;;3.40;2.73;;;;;;;;;;5015788;28;20496;-84
2023/03/22 07:46:22;;;;;;;3.03;2.93;;;;;;;;;;5029627;28;20443;-84
2023/03/22 07:48:48;;;;;;;4.07;2.97;;;;;;;;;;5033317;28;20540;-80
2023/03/22 07:51:14;;;;;;;3.93;3.50;;;;;;;;;;5027049;28;20419;-86
2023/03/22 07:53:40;;;;;;;3.17;2.97;;;;;;;;;;5040724;28;20440;-84
2023/03/22 07:56:06;;;;;;;5.47;3.30;;;;;;;;;;5040880;28;20427;-80
2023/03/22 07:58:33;;;;;;;4.10;3.80;;;;;;;;;;5025187;28;20505;-84
2023/03/22 08:01:03;;;;;;;4.47;3.97;;;;;;;;;;5004173;28;20521;-81
2023/03/22 08:03:29;;;;;;;4.73;3.47;;;;;;;;;;5009179;28;20603;-86
2023/03/22 08:05:57;;;;;;;5.27;4.00;;;;;;;;;;5029081;28;20427;-84
2023/03/22 08:08:23;;;;;;;10.27;4.07;;;;;;;;;;5026447;28;20451;-86
2023/03/22 08:10:50;;;;;;;4.70;3.10;;;;;;;;;;5021757;28;20439;-85
2023/03/22 08:13:16;;;;;;;6.50;3.17;;;;;;;;;;5028661;28;20782;-84
2023/03/22 08:15:42;;;;;;;3.87;3.57;;;;;;;;;;5024344;28;20528;-85
2023/03/22 08:18:08;;;;;;;4.27;3.27;;;;;;;;;;5028565;28;20419;-84
2023/03/22 08:20:34;;;;;;;3.40;3.20;;;;;;;;;;5029580;28;20463;-84
2023/03/22 08:23:00;;;;;;;5.70;2.07;;;;;;;;;;5020976;28;20420;-83
2023/03/22 08:25:26;;;;;;;3.17;3.07;;;;;;;;;;5029430;28;20438;-85
2023/03/22 08:27:55;;;;;;;5.60;3.43;;;;;;;;;;5039568;28;20729;-85
2023/03/22 08:30:31;;;;;;;3.50;2.33;;;;;;;;;;5026283;28;20807;-85
2023/03/22 08:32:57;;;;;;;3.80;2.50;;;;;;;;;;5021806;28;20424;-83
2023/03/22 08:35:23;;;;;;;3.50;2.00;;;;;;;;;;5033144;28;20498;-84
2023/03/22 08:37:52;;;;;;;6.47;1.63;;;;;;;;;;5009990;28;20428;-84
2023/03/22 08:40:18;;;;;;;3.43;2.00;;;;;;;;;;5030775;28;20479;-84
2023/03/22 08:42:45;;;;;;;1.80;1.77;;;;;;;;;;5030204;28;20427;-83
2023/03/22 08:45:11;;;;;;;1.30;1.20;;;;;;;;;;5030029;28;20444;-84
2023/03/22 08:47:37;;;;;;;1.00;1.00;;;;;;;;;;5031316;28;20446;-81
2023/03/22 08:50:03;;;;;;;3.00;2.40;;;;;;;;;;5029013;28;20439;-84
2023/03/22 08:52:29;;;;;;;1.70;1.60;;;;;;;;;;5033747;28;20952;-81
2023/03/22 08:54:55;;;;;;;1.33;1.23;;;;;;;;;;5031687;28;20443;-84
2023/03/22 08:57:22;;;;;;;1.23;1.13;;;;;;;;;;5033908;28;20454;-84
2023/03/22 08:59:49;;;;;;;1.60;1.20;;;;;;;;;;5026098;28;20467;-82
2023/03/22 09:02:16;;;;;;;2.83;1.20;;;;;;;;;;5035511;28;20438;-85
2023/03/22 09:07:16;;;;;;;2.67;1.73;;;;;;;;;;5050107;28;20494;-83
2023/03/22 09:09:42;;;;;;;1.77;1.43;;;;;;;;;;5034910;28;20438;-84
2023/03/22 09:12:08;;;;;;;1.20;1.13;;;;;;;;;;5033977;28;20466;-84
2023/03/22 09:14:35;;;;;;;1.33;1.23;;;;;;;;;;5044931;28;20414;-84
2023/03/22 09:17:01;;;;;;;1.33;1.23;;;;;;;;;;5038425;28;20923;-82
2023/03/22 09:19:31;;;;;;;1.33;1.20;;;;;;;;;;5042598;28;20473;-84
2023/03/22 09:21:57;;;;;;;4.70;0.87;;;;;;;;;;5040105;28;20458;-84
2023/03/22 09:24:23;;;;;;;1.40;1.40;;;;;;;;;;5038960;28;20487;-86
2023/03/22 09:26:50;;;;;;;1.30;1.30;;;;;;;;;;5036398;28;20462;-84
2023/03/22 09:29:18;;;;;;;4.50;1.33;;;;;;;;;;5042263;28;20434;-85
2023/03/22 09:31:47;;;;;;;0.93;0.93;;;;;;;;;;5033310;28;20443;-83
2023/03/22 09:34:13;;;;;;;1.27;1.10;;;;;;;;;;5047629;28;20422;-82
2023/03/22 09:36:39;;;;;;;2.43;1.40;;;;;;;;;;5037146;28;21117;-83
2023/03/22 09:39:06;;;;;;;0.87;0.87;;;;;;;;;;5042406;28;20485;-85
2023/03/22 09:41:48;;;;;;;0.97;0.97;;;;;;;;;;5024492;28;20873;-85
2023/03/22 09:44:21;;;;;;;1.80;1.20;;;;;;;;;;5032106;28;20426;-84
2023/03/22 09:46:48;;;;;;;2.37;1.10;;;;;;;;;;5027553;28;20407;-84
2023/03/22 09:49:17;;;;;;;1.63;1.43;;;;;;;;;;5022295;28;20435;-84
2023/03/22 09:51:43;;;;;;;1.10;1.10;;;;;;;;;;5024705;28;20463;-81
2023/03/22 09:54:13;;;;;;;1.63;1.07;;;;;;;;;;5032811;28;20434;-82
2023/03/22 09:56:40;;;;;;;0.97;0.97;;;;;;;;;;5036636;28;20786;-84
2023/03/22 09:59:12;;;;;;;1.37;0.93;;;;;;;;;;5026004;28;20852;-84
2023/03/22 10:01:47;;;;;;;1.23;1.00;;;;;;;;;;5044013;28;20441;-84
2023/03/22 10:04:32;;;;;;;1.83;1.73;;;;;;;;;;5044316;28;20414;-85
2023/03/22 10:07:05;;;;;;;1.40;1.30;;;;;;;;;;5040270;28;21084;-84
2023/03/22 10:09:37;;;;;;;2.10;1.00;;;;;;;;;;5029246;28;20443;-82
2023/03/22 10:12:11;;;;;;;1.00;1.00;;;;;;;;;;5043936;28;20443;-82
2023/03/22 10:14:41;;;;;;;1.10;1.10;;;;;;;;;;5032949;28;20442;-84
2023/03/22 10:17:14;;;;;;;1.30;1.30;;;;;;;;;;5034408;28;20453;-83
2023/03/22 10:19:40;;;;;;;4.73;3.63;;;;;;;;;;5031014;28;20458;-82
2023/03/22 10:22:08;;;;;;;1.80;1.70;;;;;;;;;;5038910;28;20466;-82
2023/03/22 10:24:35;;;;;;;2.13;0.97;;;;;;;;;;5039718;28;20470;-81
2023/03/22 10:27:02;;;;;;;7.47;1.60;;;;;;;;;;5042693;28;20437;-84
2023/03/22 10:29:38;;;;;;;2.03;1.83;;;;;;;;;;5040664;28;20508;-84
2023/03/22 10:32:15;;;;;;;2.53;1.67;;;;;;;;;;5030566;28;20564;-85
2023/03/22 10:34:42;;;;;;;2.67;1.63;;;;;;;;;;5037225;28;20946;-79
2023/03/22 10:37:11;;;;;;;2.87;1.67;;;;;;;;;;5047181;28;21108;-85
2023/03/22 10:39:38;;;;;;;1.37;1.37;;;;;;;;;;5045849;28;20537;-82
2023/03/22 10:42:08;;;;;;;3.07;1.30;;;;;;;;;;5032826;28;20410;-82
2023/03/22 10:44:39;;;;;;;4.40;1.93;;;;;;;;;;5040735;28;20505;-82
2023/03/22 10:47:07;;;;;;;3.20;1.13;;;;;;;;;;5040284;28;20490;-85
2023/03/22 10:49:39;;;;;;;1.33;1.33;;;;;;;;;;5021070;28;20426;-84
2023/03/22 10:52:41;;;;;;;1.00;1.00;;;;;;;;;;5032239;28;20427;-85
2023/03/22 10:55:14;;;;;;;0.97;0.97;;;;;;;;;;5004645;28;20575;-82
2023/03/22 10:57:42;;;;;;;2.00;1.70;;;;;;;;;;5041201;28;20967;-84
2023/03/22 11:00:10;;;;;;;4.63;1.33;;;;;;;;;;5042321;28;20473;-83
2023/03/22 11:02:43;;;;;;;2.17;1.10;;;;;;;;;;5041463;28;20442;-85
2023/03/22 11:05:18;;;;;;;1.83;1.83;;;;;;;;;;5033371;28;20468;-83
2023/03/22 11:07:45;;;;;;;1.20;1.20;;;;;;;;;;5042843;28;20444;-77
2023/03/22 11:10:15;;;;;;;2.63;1.37;;;;;;;;;;5018850;28;20442;-85
2023/03/22 11:12:46;;;;;;;2.60;1.70;;;;;;;;;;5034458;28;20449;-85
2023/03/22 11:15:31;;;;;;;1.10;0.93;;;;;;;;;;5023248;28;20449;-84
2023/03/22 11:17:59;;;;;;;3.27;1.53;;;;;;;;;;5032537;28;21179;-82
2023/03/22 11:20:25;;;;;;;3.47;1.60;;;;;;;;;;5022678;28;20486;-84
2023/03/22 11:22:51;;;;;;;2.90;1.80;;;;;;;;;;5036430;28;20430;-85
2023/03/22 11:25:20;;;;;;;1.57;1.57;;;;;;;;;;5047719;28;20436;-80
2023/03/22 11:28:05;;;;;;;3.23;1.73;;;;;;;;;;5038742;28;20441;-84
2023/03/22 11:30:31;;;;;;;2.00;1.37;;;;;;;;;;5032771;28;20457;-83
2023/03/22 11:33:07;;;;;;;2.17;2.00;;;;;;;;;;5038427;28;20422;-83
2023/03/22 11:35:35;;;;;;;2.97;1.20;;;;;;;;;;5031571;28;20446;-80
2023/03/22 11:38:01;;;;;;;2.57;2.53;;;;;;;;;;5036222;28;20469;-83
2023/03/22 11:40:34;;;;;;;1.53;1.27;;;;;;;;;;5031739;28;20550;-82
2023/03/22 11:43:03;;;;;;;1.23;1.20;;;;;;;;;;5039032;28;20819;-84
2023/03/22 11:45:31;;;;;;;1.33;1.20;;;;;;;;;;5034518;28;20443;-84
2023/03/22 11:48:09;;;;;;;1.20;1.20;;;;;;;;;;5035178;28;20431;-85
2023/03/22 11:50:37;;;;;;;0.73;0.73;;;;;;;;;;5034485;28;20434;-79
2023/03/22 11:53:06;;;;;;;3.40;1.40;;;;;;;;;;5044963;28;20454;-80
2023/03/22 11:55:34;;;;;;;2.20;1.43;;;;;;;;;;5050853;28;20492;-82
2023/03/22 11:58:02;;;;;;;1.33;1.00;;;;;;;;;;5025503;28;20718;-82
2023/03/22 12:00:29;;;;;;;1.93;1.93;;;;;;;;;;5033993;28;20474;-84
2023/03/22 12:03:08;;;;;;;2.10;1.37;;;;;;;;;;5035611;28;20822;-84
2023/03/22 12:05:36;;;;;;;1.70;1.30;;;;;;;;;;5032996;28;20478;-83
2023/03/22 12:08:10;;;;;;;1.37;1.37;;;;;;;;;;5030563;28;20456;-84
2023/03/22 12:10:39;;;;;;;1.80;1.70;;;;;;;;;;5030706;28;20435;-83
2023/03/22 12:13:10;;;;;;;8.20;2.03;;;;;;;;;;5044928;28;20439;-82
2023/03/22 12:15:47;;;;;;;1.70;1.70;;;;;;;;;;5082653;23;20554;-85
2023/03/22 12:18:25;;;;;;;1.93;1.70;;;;;;;;;;5009887;28;20439;-88
2023/03/22 12:20:55;;;;;;;1.73;1.33;;;;;;;;;;5216707;22;20517;-83
2023/03/22 12:23:29;;;;;;;1.50;1.50;;;;;;;;;;5028747;28;20450;-84
2023/03/22 12:26:01;;;;;;;1.27;1.27;;;;;;;;;;5041792;28;20477;-85
2023/03/22 12:28:30;;;;;;;3.00;1.87;;;;;;;;;;5032716;28;20431;-85
2023/03/22 12:30:58;;;;;;;3.13;1.60;;;;;;;;;;5048726;28;20849;-84
2023/03/22 12:33:32;;;;;;;1.73;1.63;;;;;;;;;;5047913;28;20482;-87
2023/03/22 12:36:00;;;;;;;1.10;1.10;;;;;;;;;;5025986;28;20968;-83
2023/03/22 12:38:34;;;;;;;2.37;2.20;;;;;;;;;;5032416;28;20434;-83
2023/03/22 12:41:02;;;;;;;1.30;1.17;;;;;;;;;;5027106;28;20543;-83
2023/03/22 12:43:46;;;;;;;2.60;1.30;;;;;;;;;;5029638;28;20434;-86
2023/03/22 12:46:27;;;;;;;2.00;1.33;;;;;;;;;;5038428;28;20430;-87
2023/03/22 12:49:00;;;;;;;4.33;0.97;;;;;;;;;;5034958;28;20415;-82
2023/03/22 12:51:26;;;;;;;2.00;1.30;;;;;;;;;;5033324;28;20439;-83
2023/03/22 12:53:54;;;;;;;1.80;1.10;;;;;;;;;;5038821;28;20419;-84
2023/03/22 12:56:23;;;;;;;3.00;1.43;;;;;;;;;;5035921;28;20446;-80
2023/03/22 12:58:50;;;;;;;2.23;1.40;;;;;;;;;;5042332;28;20514;-83
2023/03/22 13:01:22;;;;;;;2.13;1.50;;;;;;;;;;5028845;28;20446;-86
2023/03/22 13:03:51;;;;;;;1.80;1.63;;;;;;;;;;5046363;28;20510;-83
2023/03/22 13:06:31;;;;;;;4.57;1.07;;;;;;;;;;5026458;28;20470;-85
2023/03/22 13:09:02;;;;;;;1.43;1.33;;;;;;;;;;5033183;28;20430;-83
2023/03/22 13:11:29;;;;;;;1.37;1.30;;;;;;;;;;5052675;28;20498;-84
2023/03/22 13:13:55;;;;;;;1.23;1.23;;;;;;;;;;5030982;28;20443;-84
2023/03/22 13:16:23;;;;;;;1.50;1.40;;;;;;;;;;5239575;23;20538;-85
2023/03/22 13:18:49;;;;;;;1.20;1.20;;;;;;;;;;5067598;28;20438;-84
2023/03/22 13:21:17;;;;;;;1.90;1.33;;;;;;;;;;5059155;28;20847;-85
2023/03/22 13:23:59;;;;;;;1.33;1.20;;;;;;;;;;5059860;28;20426;-87
2023/03/22 13:26:31;;;;;;;1.90;1.90;;;;;;;;;;5061488;28;20437;-84
2023/03/22 13:29:02;;;;;;;1.60;1.20;;;;;;;;;;5062635;28;20425;-84
2023/03/22 13:31:35;;;;;;;1.70;1.40;;;;;;;;;;5068901;28;20418;-85
2023/03/22 13:34:03;;;;;;;4.03;1.00;;;;;;;;;;5069109;28;20444;-85
2023/03/22 13:36:30;;;;;;;1.10;1.00;;;;;;;;;;5068047;28;20457;-87
2023/03/22 13:41:33;;;;;;;3.53;1.70;;;;;;;;;;5084353;28;20468;-83
2023/03/22 13:44:01;;;;;;;1.10;1.10;;;;;;;;;;5071515;28;20505;-84
2023/03/22 13:49:45;;;;;;;1.63;1.53;;;;;;;;;;5064648;28;20467;-84
2023/03/22 13:52:26;;;;;;;3.03;2.10;;;;;;;;;;5198304;23;20482;-84
2023/03/22 13:54:56;;;;;;;1.90;1.23;;;;;;;;;;5238713;23;20826;-84
2023/03/22 13:57:39;;;;;;;1.90;1.37;;;;;;;;;;5313784;23;20478;-85
2023/03/22 14:00:26;;;;;;;2.77;1.27;;;;;;;;;;5059674;28;20468;-83
2023/03/22 14:02:52;;;;;;;1.63;1.13;;;;;;;;;;5021553;28;20557;-84
2023/03/22 14:05:22;;;;;;;1.80;1.70;;;;;;;;;;5039517;28;20433;-84
2023/03/22 14:07:54;;;;;;;3.50;1.67;;;;;;;;;;5046615;28;20431;-85
2023/03/22 14:10:23;;;;;;;3.23;1.30;;;;;;;;;;5047147;28;20439;-85
2023/03/22 14:12:57;;;;;;;1.70;1.70;;;;;;;;;;5060740;28;20438;-84
2023/03/22 14:15:25;;;;;;;1.70;1.70;;;;;;;;;;5056729;28;20459;-86
2023/03/22 14:18:03;;;;;;;1.50;1.40;;;;;;;;;;5038805;28;20446;-85
2023/03/22 14:20:35;;;;;;;1.57;1.57;;;;;;;;;;5040062;28;20522;-84
2023/03/22 14:23:06;;;;;;;3.03;1.50;;;;;;;;;;5037979;28;20513;-83
2023/03/22 14:25:33;;;;;;;3.83;2.47;;;;;;;;;;5040996;28;20426;-85
2023/03/22 14:27:59;;;;;;;2.00;1.90;;;;;;;;;;5042876;28;20426;-83
2023/03/22 14:30:36;;;;;;;1.90;1.30;;;;;;;;;;5046818;28;20446;-85
2023/03/22 14:33:18;;;;;;;2.07;1.97;;;;;;;;;;5033656;28;20439;-85
2023/03/22 14:35:49;;;;;;;2.00;1.60;;;;;;;;;;5048165;28;20438;-84
2023/03/22 14:38:41;;;;;;;3.50;2.20;;;;;;;;;;5044640;28;20461;-84
2023/03/22 14:41:07;;;;;;;3.10;1.50;;;;;;;;;;5046350;28;20464;-85
2023/03/22 14:43:39;;;;;;;2.20;1.50;;;;;;;;;;5043008;28;20483;-85
2023/03/22 14:46:17;;;;;;;1.30;1.30;;;;;;;;;;5025691;28;20424;-85
2023/03/22 14:48:52;;;;;;;1.20;1.20;;;;;;;;;;5043008;28;20430;-80
2023/03/22 14:51:20;;;;;;;1.70;1.60;;;;;;;;;;5036984;28;20558;-84
2023/03/22 14:53:46;;;;;;;3.73;1.87;;;;;;;;;;5045670;28;20466;-85
2023/03/22 14:56:27;;;;;;;2.40;1.60;;;;;;;;;;5049065;28;20500;-82
2023/03/22 14:59:07;;;;;;;2.00;1.90;;;;;;;;;;5044377;28;20452;-84
2023/03/22 15:01:47;;;;;;;2.47;2.27;;;;;;;;;;5117525;23;20528;-85
2023/03/22 15:04:15;;;;;;;1.73;1.63;;;;;;;;;;5051534;28;20442;-82